Time;durP1;ratioP1;P1;durP2;ratioP2;P2;SDS_P1;SDS_P2;PMS_P1;PMS_P2;Temp;Humidity;BMP_temperature;BMP_pressure;BME280_temperature;BME280_humidity;BME280_pressure;Samples;Min_cycle;Max_cycle;Signal;HPM_P1;HPM_P2
2022/08/08 00:00:21;;;;;;;8.98;3.10;;;16.10;99.90;;;;;;4895271;29;20061;-82
2022/08/08 00:03:18;;;;;;;9.02;3.35;;;16.10;99.90;;;;;;4903267;29;20048;-83
2022/08/08 00:06:17;;;;;;;9.13;3.45;;;16.20;99.90;;;;;;4911560;29;20497;-79
2022/08/08 00:09:23;;;;;;;8.10;3.33;;;16.20;99.90;;;;;;4886334;29;20068;-85
2022/08/08 00:12:13;;;;;;;6.28;2.78;;;16.30;99.90;;;;;;4895217;29;20052;-80
2022/08/08 00:15:14;;;;;;;9.18;3.47;;;16.30;99.90;;;;;;4896712;29;20152;-80
2022/08/08 00:18:14;;;;;;;11.23;3.30;;;16.40;99.90;;;;;;4902064;29;20060;-88
2022/08/08 00:21:01;;;;;;;11.73;3.78;;;16.40;99.90;;;;;;4898947;29;20064;-87
2022/08/08 00:23:56;;;;;;;6.20;2.65;;;16.50;99.90;;;;;;4899840;29;20116;-81
2022/08/08 00:26:47;;;;;;;13.98;4.15;;;16.60;99.90;;;;;;4899522;29;20062;-86
2022/08/08 00:29:56;;;;;;;11.68;4.22;;;16.60;99.90;;;;;;4900922;29;20096;-80
2022/08/08 00:33:08;;;;;;;9.65;3.50;;;16.60;99.90;;;;;;4904595;29;20049;-90
2022/08/08 00:36:26;;;;;;;7.82;2.78;;;16.70;99.90;;;;;;4906693;29;20057;-78
2022/08/08 00:39:19;;;;;;;10.05;3.30;;;16.70;99.90;;;;;;4894392;29;20652;-81
2022/08/08 00:42:29;;;;;;;10.52;3.22;;;16.70;99.90;;;;;;4897798;29;20049;-92
2022/08/08 00:45:27;;;;;;;11.95;4.07;;;16.80;99.90;;;;;;4882607;29;20052;-85
2022/08/08 00:48:43;;;;;;;8.40;3.70;;;16.80;99.90;;;;;;4896304;29;20529;-84
2022/08/08 00:51:57;;;;;;;12.65;3.58;;;16.80;99.90;;;;;;4905670;29;20069;-88
2022/08/08 00:55:01;;;;;;;8.52;3.55;;;16.80;99.90;;;;;;4902810;29;20057;-85
2022/08/08 00:58:06;;;;;;;10.68;5.15;;;16.80;99.90;;;;;;4900937;29;20535;-83
2022/08/08 01:01:01;;;;;;;9.88;3.35;;;16.80;99.90;;;;;;4887462;29;20068;-86
2022/08/08 01:04:12;;;;;;;10.63;3.35;;;16.80;99.90;;;;;;4898995;29;20091;-84
2022/08/08 01:07:26;;;;;;;10.32;4.07;;;16.80;99.90;;;;;;4899678;29;20044;-88
2022/08/08 01:10:33;;;;;;;9.13;3.72;;;16.80;99.90;;;;;;4897600;29;20056;-80
2022/08/08 01:13:46;;;;;;;8.40;3.22;;;16.80;99.90;;;;;;4899356;29;20059;-79
2022/08/08 01:17:03;;;;;;;8.82;3.60;;;16.80;99.90;;;;;;4896980;29;20386;-85
2022/08/08 01:20:07;;;;;;;5.80;3.83;;;16.80;99.90;;;;;;4902891;29;20072;-85
2022/08/08 01:23:14;;;;;;;11.77;3.85;;;16.70;99.90;;;;;;4903617;29;20052;-80
2022/08/08 01:26:26;;;;;;;13.43;4.88;;;16.80;99.90;;;;;;4896868;29;20048;-83
2022/08/08 01:29:39;;;;;;;9.50;3.67;;;16.80;99.90;;;;;;4881269;29;20121;-83
2022/08/08 01:32:40;;;;;;;7.97;5.00;;;16.70;99.90;;;;;;4883511;29;20386;-83
2022/08/08 01:36:00;;;;;;;8.23;3.58;;;16.70;99.90;;;;;;4896647;29;20080;-87
2022/08/08 01:39:18;;;;;;;7.32;4.22;;;16.80;99.90;;;;;;4880197;29;20049;-85
2022/08/08 01:42:07;;;;;;;11.07;4.07;;;16.70;99.90;;;;;;4879760;29;20072;-82
2022/08/08 01:45:21;;;;;;;10.73;4.18;;;16.70;99.90;;;;;;4901728;29;20056;-88
2022/08/08 01:48:17;;;;;;;5.70;3.45;;;16.70;99.90;;;;;;4897663;29;20044;-93
2022/08/08 01:51:27;;;;;;;11.00;4.53;;;16.70;99.90;;;;;;4897318;29;20072;-80
2022/08/08 01:54:41;;;;;;;8.10;3.83;;;16.70;99.90;;;;;;4881448;29;20118;-83
2022/08/08 01:57:41;;;;;;;14.48;4.80;;;16.60;99.90;;;;;;4902732;29;20049;-83
2022/08/08 02:00:42;;;;;;;12.93;5.43;;;16.70;99.90;;;;;;4882074;29;20057;-87
2022/08/08 02:03:42;;;;;;;6.43;3.72;;;16.70;99.90;;;;;;4882255;29;20162;-83
2022/08/08 02:06:34;;;;;;;8.70;5.05;;;16.60;99.90;;;;;;4894618;29;20143;-88
2022/08/08 02:09:47;;;;;;;8.73;4.90;;;16.70;99.90;;;;;;4900066;29;20561;-89
2022/08/08 02:12:54;;;;;;;10.02;5.07;;;16.70;99.90;;;;;;4880136;29;20068;-84
2022/08/08 02:15:54;;;;;;;12.70;4.65;;;16.70;99.90;;;;;;4895990;29;20055;-79
2022/08/08 02:18:54;;;;;;;11.70;5.72;;;16.60;99.90;;;;;;4896043;29;20045;-88
2022/08/08 02:25:23;;;;;;;11.50;5.47;;;16.70;99.90;;;;;;4896905;29;20580;-85
2022/08/08 02:28:29;;;;;;;8.82;4.53;;;16.60;99.90;;;;;;4897021;29;20423;-89
2022/08/08 02:31:24;;;;;;;9.02;4.45;;;16.50;99.90;;;;;;4898412;29;20438;-82
2022/08/08 02:34:22;;;;;;;12.95;4.78;;;16.50;99.90;;;;;;4887745;29;20056;-90
2022/08/08 02:37:49;;;;;;;6.97;3.67;;;16.60;99.90;;;;;;4898418;29;20052;-87
2022/08/08 02:40:57;;;;;;;;;;;16.60;99.90;;;;;;4898558;29;20139;-91
2022/08/08 02:44:01;;;;;;;15.10;4.18;;;16.60;99.90;;;;;;4885578;29;19935;-83
2022/08/08 02:47:18;;;;;;;7.60;3.55;;;16.70;99.90;;;;;;4890803;29;20119;-82
2022/08/08 02:50:23;;;;;;;11.27;4.43;;;16.60;99.90;;;;;;4895985;29;20060;-80
2022/08/08 02:53:25;;;;;;;10.90;3.53;;;16.60;99.90;;;;;;4914923;29;20072;-82
2022/08/08 02:56:48;;;;;;;13.20;5.63;;;16.70;99.90;;;;;;4906567;29;20049;-89
2022/08/08 03:00:00;;;;;;;11.73;4.88;;;16.60;99.90;;;;;;4896473;29;20512;-95
2022/08/08 03:03:08;;;;;;;9.32;4.70;;;16.60;99.90;;;;;;4899171;29;20044;-89
2022/08/08 03:06:51;;;;;;;9.27;4.32;;;16.60;99.90;;;;;;4900351;29;20048;-83
2022/08/08 03:10:15;;;;;;;7.55;4.72;;;16.50;99.90;;;;;;4891252;29;20476;-86
2022/08/08 03:13:19;;;;;;;9.02;5.22;;;16.50;99.90;;;;;;4899231;29;20063;-88
2022/08/08 03:16:17;;;;;;;10.95;4.20;;;16.60;99.90;;;;;;4898965;29;20095;-86
2022/08/08 03:19:37;;;;;;;16.80;5.40;;;16.60;99.90;;;;;;4901673;29;20078;-91
2022/08/08 03:22:23;;;;;;;11.32;4.53;;;16.60;99.90;;;;;;4906357;29;20052;-81
2022/08/08 03:25:09;;;;;;;12.32;6.00;;;16.60;99.90;;;;;;4903697;29;20052;-90
2022/08/08 03:28:01;;;;;;;12.02;5.47;;;16.60;99.90;;;;;;4898464;29;20139;-93
2022/08/08 03:30:47;;;;;;;9.85;5.68;;;16.60;99.90;;;;;;4899095;29;20139;-96
2022/08/08 03:33:33;;;;;;;8.48;4.53;;;16.60;99.90;;;;;;4899673;29;20065;-91
2022/08/08 03:36:20;;;;;;;11.65;5.45;;;16.60;99.90;;;;;;4898869;29;20139;-89
2022/08/08 03:39:06;;;;;;;11.38;5.10;;;16.60;99.90;;;;;;4899878;29;20060;-90
2022/08/08 03:41:52;;;;;;;9.38;4.25;;;16.60;99.90;;;;;;4898545;29;20127;-79
2022/08/08 03:44:38;;;;;;;11.70;4.20;;;16.60;99.90;;;;;;4882142;29;20052;-84
2022/08/08 03:47:25;;;;;;;9.68;4.22;;;16.60;99.90;;;;;;4900993;29;20048;-80
2022/08/08 03:50:17;;;;;;;10.88;3.50;;;16.60;99.90;;;;;;4899130;29;20056;-82
2022/08/08 03:53:12;;;;;;;9.15;3.33;;;16.70;99.90;;;;;;4897984;29;20052;-84
2022/08/08 03:55:59;;;;;;;8.60;2.42;;;16.70;99.90;;;;;;4899763;29;20052;-82
2022/08/08 03:58:50;;;;;;;7.28;2.60;;;16.70;99.90;;;;;;4900255;29;20568;-77
2022/08/08 04:01:38;;;;;;;9.40;2.00;;;16.80;99.90;;;;;;4898961;29;20060;-82
2022/08/08 04:04:24;;;;;;;6.45;2.03;;;16.80;99.90;;;;;;4902273;29;20048;-80
2022/08/08 04:07:10;;;;;;;5.55;1.67;;;16.90;99.90;;;;;;4898972;29;20049;-91
2022/08/08 04:09:57;;;;;;;10.43;2.10;;;17.00;99.90;;;;;;4898183;29;20116;-79
2022/08/08 04:12:43;;;;;;;6.85;1.55;;;17.00;99.90;;;;;;4883774;29;20170;-79
2022/08/08 04:15:29;;;;;;;4.47;1.48;;;17.00;99.90;;;;;;4896700;29;20052;-82
2022/08/08 04:18:15;;;;;;;9.48;1.73;;;17.00;99.90;;;;;;4898488;29;20493;-80
2022/08/08 04:21:02;;;;;;;7.03;1.90;;;17.10;99.90;;;;;;4896927;29;20052;-79
2022/08/08 04:23:48;;;;;;;6.32;1.80;;;17.10;99.90;;;;;;4888266;29;20049;-92
2022/08/08 04:26:35;;;;;;;6.20;1.77;;;17.10;99.90;;;;;;4902542;29;20049;-80
2022/08/08 04:29:21;;;;;;;3.72;1.52;;;17.10;99.90;;;;;;4905025;29;20113;-77
2022/08/08 04:32:08;;;;;;;7.47;1.83;;;17.20;99.90;;;;;;4904130;29;20048;-82
2022/08/08 04:34:55;;;;;;;7.53;1.38;;;17.20;99.90;;;;;;4907382;29;20048;-79
2022/08/08 04:37:41;;;;;;;5.18;1.70;;;17.20;99.90;;;;;;4900003;29;20045;-79
2022/08/08 04:40:27;;;;;;;6.43;1.50;;;17.20;99.90;;;;;;4897635;29;20139;-80
2022/08/08 04:43:13;;;;;;;5.57;1.98;;;17.20;99.90;;;;;;4880205;29;20067;-83
2022/08/08 04:46:00;;;;;;;6.97;1.98;;;17.10;99.90;;;;;;4892910;29;20049;-79
2022/08/08 04:48:46;;;;;;;5.97;1.85;;;17.10;99.90;;;;;;4893955;29;20052;-80
2022/08/08 04:51:33;;;;;;;10.13;2.13;;;17.10;99.90;;;;;;4894638;29;20066;-84
2022/08/08 04:54:19;;;;;;;5.43;1.45;;;17.00;99.90;;;;;;4899121;29;20064;-84
2022/08/08 04:57:05;;;;;;;5.60;1.73;;;17.00;99.90;;;;;;4898005;29;20416;-87
2022/08/08 04:59:51;;;;;;;5.05;1.83;;;17.00;99.90;;;;;;4893916;29;20052;-78
2022/08/08 05:02:38;;;;;;;6.85;1.77;;;17.10;99.90;;;;;;4893882;29;20520;-83
2022/08/08 05:05:24;;;;;;;5.50;1.40;;;17.10;99.90;;;;;;4897904;29;21106;-90
2022/08/08 05:08:12;;;;;;;5.68;1.83;;;17.20;99.90;;;;;;4900124;29;20076;-87
2022/08/08 05:10:59;;;;;;;4.63;1.35;;;17.20;99.90;;;;;;4886452;29;20104;-86
2022/08/08 05:13:46;;;;;;;4.13;1.45;;;17.30;99.90;;;;;;4898751;29;20052;-87
2022/08/08 05:16:32;;;;;;;7.47;1.42;;;17.40;99.90;;;;;;4898180;29;20045;-82
2022/08/08 05:19:18;;;;;;;5.95;1.35;;;17.50;99.90;;;;;;4896731;29;20111;-86
2022/08/08 05:22:09;;;;;;;8.20;1.20;;;17.60;99.90;;;;;;4898074;29;20063;-83
2022/08/08 05:24:56;;;;;;;5.88;1.45;;;17.70;99.90;;;;;;4897032;29;20592;-87
2022/08/08 05:27:43;;;;;;;6.85;1.30;;;17.80;99.90;;;;;;4883021;29;20063;-83
2022/08/08 05:30:29;;;;;;;6.43;1.40;;;17.90;99.90;;;;;;4896020;29;20061;-82
2022/08/08 05:33:15;;;;;;;9.77;1.67;;;18.00;99.90;;;;;;4898120;29;20060;-85
2022/08/08 05:36:01;;;;;;;2.72;1.20;;;18.10;99.90;;;;;;4885341;29;20052;-82
2022/08/08 05:38:50;;;;;;;6.78;1.55;;;18.10;99.90;;;;;;4900532;29;20060;-83
2022/08/08 05:41:38;;;;;;;4.15;1.30;;;18.30;99.90;;;;;;4901825;29;20152;-81
2022/08/08 05:44:29;;;;;;;3.50;1.23;;;18.40;99.90;;;;;;4896819;29;20053;-88
2022/08/08 05:47:16;;;;;;;3.50;1.10;;;18.50;99.90;;;;;;4897328;29;20048;-84
2022/08/08 05:50:06;;;;;;;6.00;1.45;;;18.50;99.90;;;;;;4897863;29;20076;-84
2022/08/08 05:52:54;;;;;;;5.13;1.23;;;18.60;99.90;;;;;;4897777;29;20521;-88
2022/08/08 05:55:42;;;;;;;4.47;1.30;;;18.70;99.90;;;;;;4897015;29;20048;-84
2022/08/08 05:58:31;;;;;;;4.50;1.05;;;18.70;99.90;;;;;;4899856;29;20438;-83
2022/08/08 06:01:22;;;;;;;7.35;1.35;;;18.70;99.90;;;;;;4896560;29;20052;-82
2022/08/08 06:04:10;;;;;;;5.57;1.35;;;18.80;99.90;;;;;;4897386;29;20056;-80
2022/08/08 06:06:59;;;;;;;5.55;1.30;;;18.90;99.90;;;;;;4896277;29;20120;-88
2022/08/08 06:09:46;;;;;;;8.27;1.30;;;19.00;99.90;;;;;;4880016;29;20065;-81
2022/08/08 06:12:33;;;;;;;3.17;1.40;;;19.20;99.90;;;;;;4894726;29;20048;-83
2022/08/08 06:15:19;;;;;;;4.90;1.20;;;19.30;99.90;;;;;;4898022;29;20056;-82
2022/08/08 06:18:05;;;;;;;10.00;1.73;;;19.40;99.90;;;;;;4898077;29;20044;-82
2022/08/08 06:20:58;;;;;;;2.17;0.90;;;19.40;99.90;;;;;;4897162;29;20531;-84
2022/08/08 06:23:44;;;;;;;3.05;1.00;;;19.40;99.90;;;;;;4897789;29;20049;-78
2022/08/08 06:26:38;;;;;;;5.35;1.05;;;19.40;99.90;;;;;;4896360;29;20080;-79
2022/08/08 06:29:34;;;;;;;4.75;1.20;;;19.50;99.90;;;;;;4896110;29;20075;-86
2022/08/08 06:32:24;;;;;;;;;;;19.60;99.90;;;;;;4879587;29;20053;-83
2022/08/08 06:35:12;;;;;;;5.30;1.08;;;19.60;99.90;;;;;;4880121;29;19927;-79
2022/08/08 06:38:03;;;;;;;4.20;1.33;;;19.60;99.90;;;;;;4880058;29;20053;-74
2022/08/08 06:40:52;;;;;;;2.50;1.05;;;19.60;99.90;;;;;;4896376;29;20045;-79
2022/08/08 06:43:42;;;;;;;3.90;1.15;;;19.60;99.90;;;;;;4895190;29;20127;-79
2022/08/08 06:46:29;;;;;;;5.60;1.15;;;19.70;99.90;;;;;;4899296;29;20514;-78
2022/08/08 06:49:15;;;;;;;5.90;1.20;;;19.70;99.90;;;;;;4885247;29;20059;-80
2022/08/08 06:52:02;;;;;;;4.57;1.45;;;19.80;99.90;;;;;;4883947;29;20060;-88
2022/08/08 06:54:49;;;;;;;4.68;1.00;;;19.80;99.90;;;;;;4898631;29;20081;-84
2022/08/08 06:57:35;;;;;;;4.72;1.20;;;19.80;99.90;;;;;;4900151;29;20553;-84
2022/08/08 07:00:21;;;;;;;5.45;0.95;;;19.80;99.90;;;;;;4885676;29;20104;-84
2022/08/08 07:03:26;;;;;;;6.65;1.50;;;20.00;99.90;;;;;;4904158;29;20135;-83
2022/08/08 07:06:16;;;;;;;8.27;1.38;;;20.00;99.90;;;;;;4903489;29;20552;-87
2022/08/08 07:09:11;;;;;;;3.30;1.15;;;20.00;99.90;;;;;;4901476;29;20067;-82
2022/08/08 07:11:58;;;;;;;6.10;1.52;;;20.20;99.90;;;;;;4903925;29;20136;-83
2022/08/08 07:15:04;;;;;;;9.13;1.30;;;20.20;99.90;;;;;;4901816;29;20071;-80
2022/08/08 07:17:50;;;;;;;3.40;1.00;;;20.30;99.90;;;;;;4890861;29;20049;-78
2022/08/08 07:20:42;;;;;;;8.60;1.15;;;20.30;99.90;;;;;;4886112;29;20048;-77
2022/08/08 07:23:47;;;;;;;4.88;1.17;;;20.40;99.90;;;;;;4904799;29;20056;-80
2022/08/08 07:26:39;;;;;;;6.15;1.17;;;20.40;99.90;;;;;;4889862;29;20111;-82
2022/08/08 07:29:26;;;;;;;5.15;0.90;;;20.50;99.90;;;;;;4904990;29;20056;-78
2022/08/08 07:32:12;;;;;;;9.93;1.27;;;20.60;99.90;;;;;;4903340;29;20048;-75
2022/08/08 07:35:00;;;;;;;5.28;1.20;;;20.70;99.90;;;;;;4903009;29;20056;-88
2022/08/08 07:37:48;;;;;;;4.78;0.98;;;20.70;99.90;;;;;;4901764;29;20048;-78
2022/08/08 07:40:35;;;;;;;6.07;1.10;;;20.60;99.90;;;;;;4897775;29;20057;-83
2022/08/08 07:43:22;;;;;;;4.53;1.00;;;20.70;99.90;;;;;;4899515;29;20080;-81
2022/08/08 07:46:09;;;;;;;3.40;1.08;;;20.70;99.90;;;;;;4884514;29;20143;-83
2022/08/08 07:48:55;;;;;;;5.35;1.40;;;20.60;99.90;;;;;;4898981;29;20053;-77
2022/08/08 07:51:43;;;;;;;4.22;1.20;;;20.70;99.90;;;;;;4885589;29;20041;-79
2022/08/08 07:54:53;;;;;;;4.80;1.00;;;20.80;99.90;;;;;;4897960;29;20561;-83
2022/08/08 07:57:51;;;;;;;7.85;1.30;;;20.90;99.90;;;;;;4897531;29;20057;-82
2022/08/08 08:01:02;;;;;;;4.32;0.90;;;21.00;99.90;;;;;;4898535;29;20104;-83
2022/08/08 08:03:56;;;;;;;4.45;1.10;;;20.90;99.90;;;;;;4897163;29;20049;-85
2022/08/08 08:06:43;;;;;;;6.03;1.50;;;21.00;99.90;;;;;;4881927;29;20069;-81
2022/08/08 08:09:37;;;;;;;3.50;0.90;;;21.00;99.90;;;;;;4898793;29;20056;-82
2022/08/08 08:12:24;;;;;;;5.47;1.00;;;21.00;99.90;;;;;;4898452;29;20135;-83
2022/08/08 08:15:13;;;;;;;4.78;1.52;;;21.10;99.90;;;;;;4884526;29;20049;-83
2022/08/08 08:18:06;;;;;;;5.50;1.27;;;21.20;99.90;;;;;;4883511;29;20091;-83
2022/08/08 08:20:53;;;;;;;7.75;1.30;;;21.40;99.90;;;;;;4880897;29;20061;-82
2022/08/08 08:23:39;;;;;;;4.38;1.00;;;21.50;99.90;;;;;;4897556;29;20196;-82
2022/08/08 08:26:26;;;;;;;3.72;1.00;;;21.60;99.90;;;;;;4881995;29;20063;-85
2022/08/08 08:29:12;;;;;;;5.18;1.40;;;21.60;99.90;;;;;;4900515;29;20084;-83
2022/08/08 08:31:58;;;;;;;2.85;0.80;;;21.60;99.90;;;;;;4880612;29;20400;-81
2022/08/08 08:34:45;;;;;;;3.75;1.13;;;21.60;99.90;;;;;;4895972;29;20113;-80
2022/08/08 08:37:31;;;;;;;5.32;0.90;;;21.70;99.90;;;;;;4897502;29;20056;-83
2022/08/08 08:40:18;;;;;;;7.07;1.42;;;21.80;99.90;;;;;;4897317;29;20405;-85
2022/08/08 08:43:04;;;;;;;6.68;1.45;;;21.80;99.90;;;;;;4896739;29;20063;-83
2022/08/08 08:45:54;;;;;;;7.38;0.95;;;21.80;99.90;;;;;;4896117;29;20053;-82
2022/08/08 08:48:42;;;;;;;2.72;0.75;;;21.80;99.90;;;;;;4896861;29;20053;-79
2022/08/08 08:51:29;;;;;;;4.90;1.17;;;21.80;99.90;;;;;;4896406;29;20139;-83
2022/08/08 08:54:20;;;;;;;4.68;0.98;;;21.90;99.90;;;;;;4895967;29;20048;-83
2022/08/08 08:57:08;;;;;;;5.20;1.08;;;21.90;99.90;;;;;;4896325;29;20498;-82
2022/08/08 08:59:55;;;;;;;7.38;1.10;;;21.90;99.90;;;;;;4881416;29;20056;-82
2022/08/08 09:02:43;;;;;;;2.78;0.90;;;21.90;99.90;;;;;;4882748;29;20083;-83
2022/08/08 09:05:33;;;;;;;5.85;1.30;;;21.90;99.90;;;;;;4896577;29;20116;-79
2022/08/08 09:08:23;;;;;;;5.47;1.42;;;21.90;99.90;;;;;;4895355;29;20409;-79
2022/08/08 09:11:10;;;;;;;7.50;1.10;;;22.00;99.90;;;;;;4897282;29;20161;-83
2022/08/08 09:13:58;;;;;;;4.45;0.88;;;21.90;99.90;;;;;;4895822;29;20112;-82
2022/08/08 09:16:46;;;;;;;4.00;1.17;;;22.00;99.90;;;;;;4896251;29;20454;-85
2022/08/08 09:19:33;;;;;;;5.28;1.20;;;21.90;99.90;;;;;;4895674;29;20052;-84
2022/08/08 09:22:21;;;;;;;2.63;0.85;;;22.00;99.90;;;;;;4895760;29;20525;-79
2022/08/08 09:25:08;;;;;;;4.72;1.15;;;22.10;99.90;;;;;;4895708;29;20112;-81
2022/08/08 09:27:56;;;;;;;7.85;1.50;;;22.10;99.90;;;;;;4895057;29;20466;-84
2022/08/08 09:30:43;;;;;;;4.05;1.20;;;22.20;99.90;;;;;;4896226;29;20565;-82
2022/08/08 09:33:34;;;;;;;6.32;1.05;;;22.20;99.90;;;;;;4896824;29;20057;-83
2022/08/08 09:36:21;;;;;;;3.45;0.93;;;22.30;99.90;;;;;;4885441;29;20052;-84
2022/08/08 09:39:10;;;;;;;2.45;0.90;;;22.50;99.90;;;;;;4897621;29;20097;-82
2022/08/08 09:42:02;;;;;;;2.05;0.80;;;22.70;99.90;;;;;;4879966;29;20505;-80
2022/08/08 09:45:26;;;;;;;4.00;1.15;;;22.70;99.90;;;;;;4866588;29;20425;-80
2022/08/08 09:48:16;;;;;;;3.88;0.82;;;22.90;99.90;;;;;;4895487;29;20493;-81
2022/08/08 09:51:03;;;;;;;7.32;1.10;;;23.00;99.90;;;;;;4895184;29;20060;-77
2022/08/08 09:53:54;;;;;;;4.75;1.13;;;23.10;99.90;;;;;;4879361;29;20060;-81
2022/08/08 09:56:43;;;;;;;3.47;1.15;;;23.30;99.90;;;;;;4895469;29;20088;-80
2022/08/08 09:59:31;;;;;;;3.60;0.82;;;23.40;99.90;;;;;;4896723;29;20073;-81
2022/08/08 10:02:21;;;;;;;3.05;0.90;;;23.70;99.50;;;;;;4895315;29;20147;-80
2022/08/08 10:05:24;;;;;;;3.50;0.85;;;23.70;99.70;;;;;;4894347;29;20052;-82
2022/08/08 10:08:11;;;;;;;4.47;1.05;;;24.10;99.10;;;;;;4895854;29;20060;-79
2022/08/08 10:10:58;;;;;;;2.15;0.90;;;24.10;99.00;;;;;;4879169;29;20056;-80
2022/08/08 10:13:58;;;;;;;2.97;0.77;;;24.20;98.20;;;;;;4895627;29;20079;-81
2022/08/08 10:16:44;;;;;;;2.58;0.90;;;24.30;97.70;;;;;;4895742;29;20193;-79
2022/08/08 10:19:38;;;;;;;2.75;1.00;;;24.30;98.20;;;;;;4883752;29;20493;-80
2022/08/08 10:22:28;;;;;;;3.28;0.82;;;24.30;98.10;;;;;;4897999;29;20048;-81
2022/08/08 10:25:19;;;;;;;2.55;0.90;;;24.20;98.10;;;;;;4898743;29;20081;-84
2022/08/08 10:28:14;;;;;;;3.47;0.93;;;24.30;97.80;;;;;;4899521;29;20512;-87
2022/08/08 10:32:30;;;;;;;8.82;1.27;;;24.50;98.00;;;;;;4900618;29;20119;-79
2022/08/08 10:34:14;;;;;;;5.80;1.15;;;24.60;97.90;;;;;;4901304;29;20108;-81
2022/08/08 10:37:02;;;;;;;3.10;0.80;;;24.70;97.20;;;;;;4899022;29;20520;-78
2022/08/08 10:39:49;;;;;;;6.45;1.27;;;25.10;97.50;;;;;;4883563;29;20517;-79
2022/08/08 10:42:35;;;;;;;5.13;1.55;;;25.30;97.30;;;;;;4899343;29;20048;-78
2022/08/08 10:45:22;;;;;;;13.30;1.98;;;25.20;97.00;;;;;;4898654;29;20821;-84
2022/08/08 10:48:10;;;;;;;3.95;0.90;;;25.30;96.80;;;;;;4898913;29;20052;-84
2022/08/08 10:50:56;;;;;;;4.78;0.90;;;25.30;97.20;;;;;;4883692;29;20100;-86
2022/08/08 10:53:46;;;;;;;5.70;1.70;;;25.60;96.80;;;;;;4882867;29;20052;-80
2022/08/08 10:56:33;;;;;;;3.83;0.80;;;25.80;96.20;;;;;;4899257;29;20494;-86
2022/08/08 10:59:19;;;;;;;3.03;1.05;;;26.00;96.40;;;;;;4899360;29;20049;-83
2022/08/08 11:02:06;;;;;;;5.38;0.98;;;25.70;96.50;;;;;;4899537;29;20075;-79
2022/08/08 11:04:57;;;;;;;2.25;0.73;;;25.60;96.30;;;;;;4897903;29;20052;-83
2022/08/08 11:07:48;;;;;;;5.15;0.93;;;26.00;96.10;;;;;;4884715;29;20065;-80
2022/08/08 11:10:34;;;;;;;3.22;0.95;;;26.00;95.60;;;;;;4898334;29;20123;-83
2022/08/08 11:13:20;;;;;;;4.00;0.90;;;26.20;95.40;;;;;;4897108;29;20576;-84
2022/08/08 11:16:08;;;;;;;5.18;1.45;;;26.40;95.40;;;;;;4898002;29;20416;-84
2022/08/08 11:18:56;;;;;;;4.80;0.98;;;26.40;94.50;;;;;;4885507;29;20056;-83
2022/08/08 11:21:46;;;;;;;5.57;1.17;;;26.50;94.60;;;;;;4897803;29;20148;-84
2022/08/08 11:24:34;;;;;;;7.53;1.02;;;26.60;94.90;;;;;;4898292;29;20064;-82
2022/08/08 11:27:28;;;;;;;5.30;1.25;;;26.60;94.80;;;;;;4897858;29;20406;-81
2022/08/08 11:30:14;;;;;;;3.13;0.80;;;26.40;94.50;;;;;;4884780;29;20074;-80
2022/08/08 11:33:03;;;;;;;3.58;1.08;;;26.40;95.30;;;;;;4898691;29;20048;-79
2022/08/08 11:35:50;;;;;;;5.30;0.95;;;26.80;94.00;;;;;;4898675;29;20178;-81
2022/08/08 11:38:36;;;;;;;4.35;0.80;;;27.40;93.70;;;;;;4884839;29;20055;-81
2022/08/08 11:41:23;;;;;;;5.20;0.93;;;27.60;93.10;;;;;;4898182;29;20065;-83
2022/08/08 11:44:13;;;;;;;2.92;0.70;;;28.00;93.00;;;;;;4898597;29;20053;-84
2022/08/08 11:47:00;;;;;;;3.55;0.70;;;28.10;92.20;;;;;;4899220;29;20056;-81
2022/08/08 11:49:46;;;;;;;3.80;0.85;;;28.40;91.50;;;;;;4900977;29;20401;-82
2022/08/08 11:52:34;;;;;;;3.90;1.10;;;28.70;91.20;;;;;;4899894;29;20087;-77
2022/08/08 11:55:25;;;;;;;4.40;0.95;;;28.90;91.60;;;;;;4898657;29;20058;-81
2022/08/08 11:58:11;;;;;;;5.25;0.82;;;29.30;91.10;;;;;;4897343;29;20051;-80
2022/08/08 12:00:58;;;;;;;4.82;1.00;;;29.20;90.60;;;;;;4896874;29;20045;-82
2022/08/08 12:03:50;;;;;;;5.18;0.80;;;29.00;90.70;;;;;;4897205;29;20053;-82
2022/08/08 12:06:37;;;;;;;2.83;0.70;;;28.70;90.80;;;;;;4896588;29;20135;-81
2022/08/08 12:09:28;;;;;;;6.95;0.95;;;28.50;90.90;;;;;;4896608;29;20092;-77
2022/08/08 12:12:25;;;;;;;4.00;1.00;;;29.10;90.30;;;;;;4897694;29;20065;-84
2022/08/08 12:15:12;;;;;;;3.85;1.20;;;28.50;90.40;;;;;;4896057;29;20089;-81
2022/08/08 12:17:58;;;;;;;4.90;0.82;;;28.80;90.30;;;;;;4897136;29;20056;-78
2022/08/08 12:20:44;;;;;;;6.82;1.20;;;29.30;91.00;;;;;;4899588;29;20075;-83
2022/08/08 12:23:34;;;;;;;3.78;0.70;;;29.90;90.60;;;;;;4898428;29;20108;-77
2022/08/08 12:26:23;;;;;;;6.05;1.50;;;29.80;88.20;;;;;;4896915;29;20052;-81
2022/08/08 12:29:26;;;;;;;9.75;1.17;;;30.20;88.00;;;;;;4880514;29;20598;-79
2022/08/08 12:32:16;;;;;;;9.95;0.93;;;30.20;87.00;;;;;;4897999;29;20087;-79
2022/08/08 12:35:03;;;;;;;3.95;1.45;;;30.40;88.20;;;;;;4897249;29;20148;-80
2022/08/08 12:38:06;;;;;;;6.05;1.00;;;30.00;85.90;;;;;;4895208;29;20048;-78
2022/08/08 12:40:52;;;;;;;3.45;1.02;;;30.40;84.60;;;;;;4880935;29;20052;-80
2022/08/08 12:43:38;;;;;;;9.73;1.67;;;30.30;86.40;;;;;;4879867;29;20088;-82
2022/08/08 12:46:25;;;;;;;3.58;0.88;;;30.50;85.10;;;;;;4896221;29;20053;-78
2022/08/08 12:49:11;;;;;;;5.32;1.23;;;31.30;84.80;;;;;;4896916;29;20053;-84
2022/08/08 12:51:57;;;;;;;3.40;0.70;;;31.00;84.00;;;;;;4897765;29;20093;-83
2022/08/08 12:54:44;;;;;;;3.10;0.80;;;30.60;83.40;;;;;;4881096;29;20057;-81
2022/08/08 12:57:30;;;;;;;12.35;1.50;;;31.00;82.70;;;;;;4896992;29;20053;-77
2022/08/08 13:00:27;;;;;;;3.60;0.82;;;31.10;81.90;;;;;;4895875;29;20494;-84
2022/08/08 13:03:26;;;;;;;3.95;0.80;;;31.10;81.30;;;;;;4897361;29;20421;-77
2022/08/08 13:06:14;;;;;;;2.35;0.90;;;31.80;79.80;;;;;;4896316;29;20063;-84
2022/08/08 13:09:08;;;;;;;5.30;1.23;;;31.70;78.60;;;;;;4880100;29;20519;-83
2022/08/08 13:11:54;;;;;;;4.63;1.38;;;32.20;78.30;;;;;;4896192;29;20056;-82
2022/08/08 13:14:49;;;;;;;3.90;0.95;;;32.00;77.70;;;;;;4896451;29;20116;-83
2022/08/08 13:17:35;;;;;;;4.13;0.73;;;32.30;76.20;;;;;;4885287;29;20108;-81
2022/08/08 13:20:22;;;;;;;3.97;0.93;;;32.50;74.20;;;;;;4899224;29;20052;-79
2022/08/08 13:23:18;;;;;;;2.65;0.68;;;32.00;74.60;;;;;;4895695;29;20092;-80
2022/08/08 13:26:07;;;;;;;3.72;1.02;;;32.40;73.60;;;;;;4882961;29;20048;-81
2022/08/08 13:28:53;;;;;;;2.67;0.68;;;32.70;73.80;;;;;;4896628;29;20056;-80
2022/08/08 13:31:50;;;;;;;2.70;0.70;;;33.40;72.70;;;;;;4894267;29;20071;-85
2022/08/08 13:34:38;;;;;;;8.82;1.13;;;34.10;71.10;;;;;;4895627;29;20049;-84
2022/08/08 13:37:25;;;;;;;4.80;0.90;;;34.80;69.50;;;;;;4880831;29;20064;-81
2022/08/08 13:40:12;;;;;;;2.08;0.40;;;34.90;67.60;;;;;;4899284;29;20060;-77
2022/08/08 13:42:58;;;;;;;2.63;0.70;;;34.90;65.70;;;;;;4895859;29;20442;-87
2022/08/08 13:45:44;;;;;;;3.95;1.10;;;35.30;64.10;;;;;;4896822;29;20050;-78
2022/08/08 13:48:30;;;;;;;2.53;0.90;;;35.60;61.80;;;;;;4895679;29;20051;-81
2022/08/08 13:51:17;;;;;;;3.03;0.88;;;35.60;61.70;;;;;;4882292;29;20052;-84
2022/08/08 13:54:04;;;;;;;5.07;0.90;;;35.80;60.80;;;;;;4894986;29;20498;-82
2022/08/08 13:57:08;;;;;;;3.38;0.80;;;36.30;60.40;;;;;;4897517;29;20498;-84
2022/08/08 14:00:15;;;;;;;3.67;0.88;;;36.40;57.10;;;;;;4883808;29;20064;-85
2022/08/08 14:03:02;;;;;;;6.00;0.80;;;36.70;58.00;;;;;;4895805;29;20052;-83
2022/08/08 14:05:48;;;;;;;5.53;1.02;;;35.40;57.30;;;;;;4879282;29;20528;-82
2022/08/08 14:08:43;;;;;;;4.68;0.80;;;33.90;58.50;;;;;;4893910;29;20116;-81
2022/08/08 14:11:32;;;;;;;5.90;0.75;;;34.10;58.30;;;;;;4879349;29;20510;-86
2022/08/08 14:14:19;;;;;;;3.72;1.00;;;35.30;58.80;;;;;;4895386;29;20052;-82
2022/08/08 14:17:06;;;;;;;2.92;0.68;;;36.30;57.60;;;;;;4895641;29;20045;-86
2022/08/08 14:20:01;;;;;;;3.35;0.80;;;37.00;55.40;;;;;;4894932;29;20053;-84
2022/08/08 14:22:49;;;;;;;5.85;0.95;;;36.90;54.40;;;;;;4895620;29;20056;-80
2022/08/08 14:25:55;;;;;;;3.85;0.75;;;37.40;54.60;;;;;;4898408;29;20509;-79
2022/08/08 14:28:54;;;;;;;4.93;0.90;;;37.60;53.30;;;;;;4896291;29;20057;-80
2022/08/08 14:31:48;;;;;;;4.47;1.13;;;37.20;53.40;;;;;;4895131;29;20072;-81
2022/08/08 14:34:34;;;;;;;4.05;1.25;;;37.30;52.40;;;;;;4895356;29;20060;-80
2022/08/08 14:37:22;;;;;;;3.25;0.60;;;37.60;52.20;;;;;;4894724;29;20045;-82
2022/08/08 14:40:10;;;;;;;2.53;0.60;;;37.70;51.70;;;;;;4895292;29;20060;-83
2022/08/08 14:42:58;;;;;;;4.40;0.98;;;37.50;50.40;;;;;;4895361;29;20053;-81
2022/08/08 14:45:45;;;;;;;3.83;0.80;;;37.40;51.10;;;;;;4896041;29;20544;-78
2022/08/08 14:48:46;;;;;;;4.70;0.70;;;36.80;51.10;;;;;;4882734;29;20049;-81
2022/08/08 14:51:41;;;;;;;4.18;1.38;;;36.90;51.80;;;;;;4881991;29;20081;-77
2022/08/08 14:54:27;;;;;;;2.65;0.65;;;36.70;50.70;;;;;;4895153;29;20442;-88
2022/08/08 14:57:14;;;;;;;2.63;0.60;;;36.70;51.80;;;;;;4894179;29;20597;-82
2022/08/08 15:00:00;;;;;;;4.47;0.70;;;36.90;52.00;;;;;;4894805;29;20053;-79